Domov               UVHVVR             MKGP            O straneh              
ZDRAVSTVENO VARSTVO RASTLIN
  MREŽA AGROMET. POSTAJ
 ► PROGNOSTIČNA OBVESTILA
AGROMETEOROLOŠKI PODATKI -
ARSO
OBVLADOVANJE TVEGANJ ZARADI
NEUGODNIH VREMENSKIH RAZMER
  ► NARAVNE NESREČE
  ► SUŠA/MOČA
  ► NAMAKANJE
  ► ŽLED (gozdarstvo)
KARTOGRAFSKI PRIKAZI
SPLETNE POVEZAVE
PROJEKTI IN PUBLIKACIJE

AGROMETEOROLOŠKA MREŽA: VREMENSKE POSTAJE IN FENOLOŠKA OPAZOVANJA

Pregled podatkov za lokacijo Savci, meteorološka postaja 27393

Pregled senzorjev na lokaciji

ID Ime Zadnja
vrednost
Datum
zadnje
spremembe
Tip
senzorja
942 Omočenost lista (U) 0 U 20.6.2018 16:24 A730WET
1378 Padavine (mm) 0 mm 20.6.2018 16:24 Generic 0.2 mm
944 Relativna vlaga 2 m (% RH) 48,52 % RH 20.6.2018 16:24 Generic 0 - 100 %
943 Temperatura 2 m (°C) 27,64 °C 20.6.2018 16:24 Generic -40 - +60 °C

Pregled podatkov zadnjih 24 ur

Zap.
št.
Datum in čas Savci
Omočenost
lista
Padavine Relativna
vlaga
2
m
Temperatura
2
m
1 20.6.2018 16:30
2 20.6.2018 16:00
3 20.6.2018 15:30 0 0 48,5 27,6
4 20.6.2018 15:00 0 0 44,2 28,3
5 20.6.2018 14:30 0 0 42,4 28,5
6 20.6.2018 14:00 0 0 40,6 28,6
7 20.6.2018 13:30 0 0 40 28,4
8 20.6.2018 13:00 0 0 41,5 28,5
9 20.6.2018 12:30 0 0 42,9 28,2
10 20.6.2018 12:00 0 0 43,7 28,3
11 20.6.2018 11:30 0 0 45,1 27,4
12 20.6.2018 11:00 0 0 45,7 26,8
13 20.6.2018 10:30 0 0 44,9 26,7
14 20.6.2018 10:00 0 0 48,6 26
15 20.6.2018 09:30 0 0 51,8 25,5
16 20.6.2018 09:00 0 0 50,9 25,3
17 20.6.2018 08:30 0 0 53,8 23,8
18 20.6.2018 08:00 0 0 55,7 23,1
19 20.6.2018 07:30 0 0 57,1 23
20 20.6.2018 07:00 0 0 60,9 22
21 20.6.2018 06:30 0 0 64 21,2
22 20.6.2018 06:00 0 0 72,4 19,8
23 20.6.2018 05:30 0 0 71,6 18,4
24 20.6.2018 05:00 0 0 73,5 17,5
25 20.6.2018 04:30 0 0 79,9 16,2
26 20.6.2018 04:00 0 0 87,1 15
27 20.6.2018 03:30 0 0 88,7 14,9
28 20.6.2018 03:00 0 0 87,4 16
29 20.6.2018 02:30 0 0 79,6 15,9
30 20.6.2018 02:00 0 0 86,9 15,3
31 20.6.2018 01:30 0 0 87,8 16,1
32 20.6.2018 01:00 0 0 79,7 16,3
33 20.6.2018 00:30 1 0 90,3 15,6
34 20.6.2018 00:00 1 0 91,9 15,6
35 19.6.2018 23:30 0 0 92,4 15,8
36 19.6.2018 23:00 0 0 90,7 16,3
37 19.6.2018 22:30 0 0 88 17,2
38 19.6.2018 22:00 0 0 86,8 16,9
39 19.6.2018 21:30 0 0 88,8 17,5
40 19.6.2018 21:00 0 0 86,2 18
41 19.6.2018 20:30 0 0 84,4 19
42 19.6.2018 20:00 0 0 79,1 20,8
43 19.6.2018 19:30 0 0 60,5 23,8
44 19.6.2018 19:00 0 0 52,3 24,7
45 19.6.2018 18:30 0 0 48,3 25,4
46 19.6.2018 18:00 0 0 46,7 25,9
47 19.6.2018 17:30 0 0 44,8 26,5
48 19.6.2018 17:00 0 0 41,4 26,6
© 2011 Ministrstvo za kmetijstvo, gozdarstvo in prehrano. Vse pravice pridržane.